createdAt,value
2022-11-04T00:00:29.999Z,17.60
2022-11-04T00:02:58.525Z,17.64
2022-11-04T00:05:27.872Z,17.69
2022-11-04T00:08:13.064Z,17.78
2022-11-04T00:10:58.369Z,17.78
2022-11-04T00:13:26.466Z,17.55
2022-11-04T00:16:11.885Z,17.59
2022-11-04T00:18:39.895Z,17.59
2022-11-04T00:21:26.981Z,17.67
2022-11-04T00:24:12.213Z,17.69
2022-11-04T00:26:57.452Z,17.62
2022-11-04T00:29:25.596Z,17.55
2022-11-04T00:32:10.896Z,17.67
2022-11-04T00:34:38.979Z,17.78
2022-11-04T00:37:08.345Z,17.87
2022-11-04T00:39:36.379Z,17.88
2022-11-04T00:42:04.570Z,17.87
2022-11-04T00:44:32.635Z,17.85
2022-11-04T00:47:00.634Z,17.79
2022-11-04T00:49:28.676Z,17.64
2022-11-04T00:51:56.696Z,17.47
2022-11-04T00:54:26.089Z,17.65
2022-11-04T00:56:55.121Z,17.70
2022-11-04T00:59:23.101Z,17.67
2022-11-04T01:01:51.258Z,17.48
2022-11-04T01:04:19.347Z,17.64
2022-11-04T01:06:47.703Z,17.63
2022-11-04T01:09:15.719Z,17.75
2022-11-04T01:11:45.047Z,17.49
2022-11-04T01:14:13.592Z,17.39
2022-11-04T01:16:41.902Z,17.43
2022-11-04T01:19:10.572Z,17.45
2022-11-04T01:21:38.612Z,17.59
2022-11-04T01:24:07.445Z,17.68
2022-11-04T01:26:35.544Z,17.70
2022-11-04T01:29:04.996Z,17.53
2022-11-04T01:31:33.425Z,17.59
2022-11-04T01:34:01.433Z,17.40
2022-11-04T01:36:29.664Z,17.26
2022-11-04T01:38:58.129Z,17.23
2022-11-04T01:41:28.413Z,17.24
2022-11-04T01:43:57.990Z,17.34
2022-11-04T01:46:44.341Z,17.30
2022-11-04T01:49:25.230Z,17.20
2022-11-04T01:52:00.562Z,17.15
2022-11-04T01:54:30.115Z,17.03
2022-11-04T01:56:59.047Z,16.82
2022-11-04T01:59:31.404Z,16.88
2022-11-04T02:02:00.869Z,16.85
2022-11-04T02:04:30.189Z,16.89
2022-11-04T02:07:00.973Z,16.81
2022-11-04T02:09:31.317Z,16.77
2022-11-04T02:12:17.016Z,16.76
2022-11-04T02:14:47.788Z,16.74
2022-11-04T02:17:33.244Z,16.60
2022-11-04T02:20:19.148Z,16.70
2022-11-04T02:23:22.679Z,16.64
2022-11-04T02:26:20.004Z,16.56
2022-11-04T02:29:09.007Z,16.48
2022-11-04T02:31:46.136Z,16.51
2022-11-04T02:34:22.934Z,16.48
2022-11-04T02:36:59.843Z,16.44
2022-11-04T02:39:37.716Z,16.40
2022-11-04T02:42:13.906Z,16.37
2022-11-04T02:44:49.305Z,16.25
2022-11-04T02:47:22.221Z,16.32
2022-11-04T02:49:56.380Z,16.21
2022-11-04T02:52:31.030Z,16.16
2022-11-04T02:55:04.096Z,16.17
2022-11-04T02:57:36.296Z,16.22
2022-11-04T03:00:07.852Z,16.30
2022-11-04T03:02:39.057Z,16.17
2022-11-04T03:05:10.415Z,16.08
2022-11-04T03:07:42.959Z,16.21
2022-11-04T03:10:16.964Z,16.20
2022-11-04T03:12:49.668Z,16.11
2022-11-04T03:15:24.850Z,16.13
2022-11-04T03:17:59.365Z,16.02
2022-11-04T03:20:29.890Z,15.95
2022-11-04T03:23:00.214Z,15.87
2022-11-04T03:25:33.433Z,15.90
2022-11-04T03:28:07.526Z,15.84
2022-11-04T03:30:43.423Z,15.98
2022-11-04T03:33:19.761Z,16.04
2022-11-04T03:35:47.993Z,16.12
2022-11-04T03:38:16.053Z,16.07
2022-11-04T03:40:44.123Z,16.08
2022-11-04T03:43:15.872Z,15.93
2022-11-04T03:45:45.389Z,15.92
2022-11-04T03:48:14.051Z,15.87
2022-11-04T03:50:44.064Z,15.93
2022-11-04T03:53:14.463Z,15.81
2022-11-04T03:55:52.338Z,15.89
2022-11-04T03:58:31.527Z,15.84
2022-11-04T04:01:09.350Z,15.89
2022-11-04T04:03:43.529Z,15.98
2022-11-04T04:06:17.928Z,15.84
2022-11-04T04:08:49.786Z,15.80
2022-11-04T04:11:20.990Z,15.76
2022-11-04T04:13:55.614Z,15.83
2022-11-04T04:16:31.496Z,15.87
2022-11-04T04:19:02.522Z,15.90
2022-11-04T04:21:33.324Z,15.87
2022-11-04T04:24:21.605Z,15.88
2022-11-04T04:27:08.434Z,15.83
2022-11-04T04:29:37.884Z,15.67
2022-11-04T04:32:08.296Z,15.81
2022-11-04T04:34:36.577Z,16.03
2022-11-04T04:37:07.672Z,15.97
2022-11-04T04:39:58.298Z,15.74
2022-11-04T04:42:44.096Z,15.77
2022-11-04T04:45:20.541Z,15.70
2022-11-04T04:47:50.056Z,15.82
2022-11-04T04:50:20.302Z,15.84
2022-11-04T04:52:50.789Z,15.68
2022-11-04T04:55:19.384Z,15.85
2022-11-04T04:57:47.428Z,15.91
2022-11-04T05:00:17.740Z,15.87
2022-11-04T05:02:46.225Z,15.88
2022-11-04T05:07:48.872Z,15.85
2022-11-04T05:10:18.333Z,15.86
2022-11-04T05:13:03.764Z,15.86
2022-11-04T05:15:32.223Z,15.89
2022-11-04T05:18:02.313Z,15.85
2022-11-04T05:20:34.298Z,15.90
2022-11-04T05:23:02.542Z,15.92
2022-11-04T05:25:30.665Z,15.98
2022-11-04T05:28:01.104Z,15.97
2022-11-04T05:30:29.194Z,15.93
2022-11-04T05:33:00.022Z,15.97
2022-11-04T05:35:33.245Z,15.98
2022-11-04T05:38:01.339Z,15.92
2022-11-04T05:40:29.345Z,15.71
2022-11-04T05:42:59.749Z,15.81
2022-11-04T05:45:28.106Z,15.70
2022-11-04T05:48:00.169Z,15.78
2022-11-04T05:50:28.926Z,15.81
2022-11-04T05:52:59.899Z,15.88
2022-11-04T05:55:28.371Z,15.82
2022-11-04T05:57:58.010Z,15.80
2022-11-04T06:00:27.072Z,15.80
2022-11-04T06:02:57.267Z,15.75
2022-11-04T06:05:25.586Z,15.74
2022-11-04T06:07:53.636Z,15.77
2022-11-04T06:10:23.432Z,15.72
2022-11-04T06:12:51.584Z,15.59
2022-11-04T06:15:19.597Z,15.69
2022-11-04T06:17:47.685Z,15.71
2022-11-04T06:20:16.556Z,15.76
2022-11-04T06:22:44.605Z,15.74
2022-11-04T06:25:12.961Z,15.78
2022-11-04T06:27:42.408Z,15.78
2022-11-04T06:30:12.857Z,15.73
2022-11-04T06:32:40.914Z,15.74
2022-11-04T06:35:09.951Z,15.78
2022-11-04T06:37:38.263Z,15.74
2022-11-04T06:40:07.568Z,15.71
2022-11-04T06:42:35.616Z,15.67
2022-11-04T06:45:05.702Z,15.61
2022-11-04T06:47:33.748Z,15.59
2022-11-04T06:50:01.977Z,15.59
2022-11-04T06:52:29.998Z,15.61
2022-11-04T06:54:58.078Z,15.46
2022-11-04T06:57:26.052Z,15.52
2022-11-04T06:59:54.078Z,15.47
2022-11-04T07:02:23.662Z,15.39
2022-11-04T07:04:52.124Z,15.40
2022-11-04T07:07:20.162Z,15.41
2022-11-04T07:09:48.360Z,15.39
2022-11-04T07:12:16.670Z,15.29
2022-11-04T07:14:44.671Z,15.18
2022-11-04T07:17:13.136Z,15.22
2022-11-04T07:19:42.594Z,15.21
2022-11-04T07:22:10.701Z,15.23
2022-11-04T07:24:38.728Z,15.22
2022-11-04T07:27:07.766Z,15.27
2022-11-04T07:29:35.801Z,15.32
2022-11-04T07:32:04.076Z,15.36
2022-11-04T07:34:32.110Z,15.46
2022-11-04T07:37:01.461Z,15.46
2022-11-04T07:39:29.553Z,15.42
2022-11-04T07:41:59.572Z,15.48
2022-11-04T07:44:28.047Z,15.48
2022-11-04T07:46:56.435Z,15.37
2022-11-04T07:49:25.379Z,15.43
2022-11-04T07:51:53.541Z,15.41
2022-11-04T07:54:22.917Z,15.42
2022-11-04T07:56:50.965Z,15.56
2022-11-04T07:59:18.965Z,15.69
2022-11-04T08:01:47.019Z,15.85
2022-11-04T08:04:15.034Z,15.92
2022-11-04T08:06:43.084Z,16.19
2022-11-04T08:09:11.088Z,16.67
2022-11-04T08:11:40.495Z,16.95
2022-11-04T08:14:08.529Z,17.28
2022-11-04T08:16:36.595Z,17.61
2022-11-04T08:19:04.692Z,17.89
2022-11-04T08:21:34.195Z,18.06
2022-11-04T08:24:03.905Z,18.22
2022-11-04T08:26:31.947Z,18.64
2022-11-04T08:29:02.552Z,19.05
2022-11-04T08:31:33.767Z,19.16
2022-11-04T08:34:02.814Z,19.18
2022-11-04T08:36:34.420Z,19.17
2022-11-04T08:39:09.988Z,19.22
2022-11-04T08:41:41.133Z,19.27
2022-11-04T08:44:11.678Z,19.22
2022-11-04T08:46:41.081Z,19.24
2022-11-04T08:49:11.378Z,19.38
2022-11-04T08:51:44.797Z,19.72
2022-11-04T08:54:12.847Z,19.91
2022-11-04T08:56:41.637Z,19.59
2022-11-04T08:59:12.585Z,19.11
2022-11-04T09:01:40.790Z,18.50
2022-11-04T09:04:09.206Z,18.03
2022-11-04T09:06:39.725Z,18.02
2022-11-04T09:09:09.815Z,18.05
2022-11-04T09:11:39.520Z,17.96
2022-11-04T09:14:08.152Z,17.91
2022-11-04T09:16:38.869Z,17.73
2022-11-04T09:19:07.252Z,17.58
2022-11-04T09:21:35.300Z,17.44
2022-11-04T09:24:03.331Z,17.29
2022-11-04T09:26:31.981Z,17.52
2022-11-04T09:29:01.157Z,18.19
2022-11-04T09:31:31.202Z,19.02
2022-11-04T09:34:00.554Z,19.80
2022-11-04T09:36:29.174Z,20.30
2022-11-04T09:38:57.175Z,20.71
2022-11-04T09:41:43.946Z,20.74
2022-11-04T09:44:21.899Z,20.60
2022-11-04T09:46:51.592Z,20.53
2022-11-04T09:49:22.367Z,20.77
2022-11-04T09:51:54.847Z,21.30
2022-11-04T09:54:25.721Z,21.17
2022-11-04T09:56:55.723Z,21.29
2022-11-04T09:59:28.749Z,21.54
2022-11-04T10:02:26.170Z,21.95
2022-11-04T10:05:06.045Z,22.32
2022-11-04T10:07:49.995Z,22.68
2022-11-04T10:10:24.304Z,22.84
2022-11-04T10:13:12.534Z,22.76
2022-11-04T10:15:55.245Z,22.87
2022-11-04T10:18:43.595Z,23.08
2022-11-04T10:21:24.792Z,23.43
2022-11-04T10:24:06.628Z,23.43
2022-11-04T10:26:42.160Z,23.56
2022-11-04T10:29:16.176Z,23.58
2022-11-04T10:31:46.263Z,23.49
2022-11-04T10:34:24.682Z,22.83
2022-11-04T10:36:54.501Z,22.71
2022-11-04T10:39:29.044Z,23.27
2022-11-04T10:41:58.245Z,23.73
2022-11-04T10:44:31.291Z,24.02
2022-11-04T10:47:11.654Z,24.19
2022-11-04T10:52:52.795Z,24.64
2022-11-04T10:55:38.089Z,24.38
2022-11-04T10:58:16.139Z,24.38
2022-11-04T11:00:45.275Z,24.02
2022-11-04T11:03:32.512Z,24.06
2022-11-04T11:06:17.831Z,24.20
2022-11-04T11:08:47.677Z,24.08
2022-11-04T11:11:16.663Z,24.09
2022-11-04T11:13:46.471Z,24.58
2022-11-04T11:16:19.518Z,24.70
2022-11-04T11:19:15.873Z,24.35
2022-11-04T11:21:45.732Z,23.62
2022-11-04T11:24:20.031Z,23.39
2022-11-04T11:26:49.879Z,23.46
2022-11-04T11:29:22.956Z,23.25
2022-11-04T11:31:53.089Z,22.39
2022-11-04T11:34:26.485Z,21.81
2022-11-04T11:36:56.340Z,21.92
2022-11-04T11:39:28.132Z,21.92
2022-11-04T11:42:00.387Z,21.69
2022-11-04T11:44:33.084Z,21.24
2022-11-04T11:47:03.723Z,20.93
2022-11-04T11:49:34.474Z,20.42
2022-11-04T11:52:26.938Z,20.17
2022-11-04T11:55:04.368Z,20.06
2022-11-04T11:57:43.189Z,19.94
2022-11-04T12:03:13.280Z,19.54
2022-11-04T12:11:54.875Z,21.36
2022-11-04T12:14:32.097Z,22.08
2022-11-04T12:17:08.473Z,23.08
2022-11-04T12:19:53.180Z,22.99
2022-11-04T12:22:30.425Z,22.62
2022-11-04T12:25:10.429Z,22.20
2022-11-04T12:27:50.634Z,21.83
2022-11-04T12:30:29.810Z,21.59
2022-11-04T12:33:17.989Z,21.38
2022-11-04T12:36:01.015Z,21.32
2022-11-04T12:38:52.339Z,21.14
2022-11-04T12:41:52.321Z,20.99
2022-11-04T12:44:29.829Z,20.54
2022-11-04T12:47:07.230Z,20.29
2022-11-04T12:49:50.099Z,19.76
2022-11-04T12:52:33.613Z,19.59
2022-11-04T12:55:18.656Z,19.48
2022-11-04T12:57:56.367Z,19.39
2022-11-04T13:00:28.336Z,19.38
2022-11-04T13:03:02.835Z,19.86
2022-11-04T13:05:43.736Z,20.04
2022-11-04T13:08:20.038Z,20.06
2022-11-04T13:10:54.252Z,19.95
2022-11-04T13:13:27.710Z,19.41
2022-11-04T13:16:00.574Z,18.78
2022-11-04T13:18:36.487Z,18.18
2022-11-04T13:21:08.842Z,17.83
2022-11-04T13:23:42.432Z,17.67
2022-11-04T13:26:14.573Z,17.66
2022-11-04T13:28:43.864Z,17.65
2022-11-04T13:31:21.516Z,17.53
2022-11-04T13:33:55.795Z,17.46
2022-11-04T13:36:33.770Z,17.39
2022-11-04T13:39:07.504Z,17.33
2022-11-04T13:42:05.159Z,17.28
2022-11-04T13:44:38.695Z,17.26
2022-11-04T13:47:22.200Z,17.29
2022-11-04T13:49:52.238Z,17.40
2022-11-04T13:52:20.687Z,17.47
2022-11-04T13:54:55.187Z,17.53
2022-11-04T13:57:25.852Z,17.64
2022-11-04T14:00:22.495Z,17.88
2022-11-04T14:02:53.154Z,18.50
2022-11-04T14:05:48.524Z,19.46
2022-11-04T14:08:17.981Z,20.25
2022-11-04T14:10:59.503Z,20.64
2022-11-04T14:13:47.804Z,21.07
2022-11-04T14:16:41.297Z,21.24
2022-11-04T14:19:57.757Z,21.34
2022-11-04T14:22:35.303Z,21.46
2022-11-04T14:25:19.150Z,21.67
2022-11-04T14:27:48.900Z,21.75
2022-11-04T14:30:36.965Z,21.87
2022-11-04T14:33:08.285Z,22.02
2022-11-04T14:35:37.321Z,22.05
2022-11-04T14:38:25.582Z,22.03
2022-11-04T14:41:13.733Z,21.89
2022-11-04T14:43:44.470Z,21.81
2022-11-04T14:46:18.964Z,21.69
2022-11-04T14:48:52.197Z,21.57
2022-11-04T14:51:27.715Z,21.31
2022-11-04T14:54:04.668Z,21.01
2022-11-04T14:56:32.704Z,20.53
2022-11-04T14:59:03.292Z,20.01
2022-11-04T15:01:35.446Z,19.61
2022-11-04T15:04:12.153Z,19.22
2022-11-04T15:06:54.320Z,19.00
2022-11-04T15:09:26.482Z,18.84
2022-11-04T15:12:20.617Z,18.68
2022-11-04T15:14:48.798Z,18.51
2022-11-04T15:17:20.495Z,18.41
2022-11-04T15:19:51.647Z,18.29
2022-11-04T15:22:20.744Z,18.20
2022-11-04T15:24:51.596Z,18.09
2022-11-04T15:27:25.507Z,17.97
2022-11-04T15:29:58.591Z,17.79
2022-11-04T15:32:27.303Z,17.66
2022-11-04T15:34:56.664Z,17.54
2022-11-04T15:37:26.595Z,17.40
2022-11-04T15:39:58.859Z,17.32
2022-11-04T15:42:42.976Z,17.23
2022-11-04T15:45:30.254Z,17.08
2022-11-04T15:48:26.989Z,16.93
2022-11-04T15:51:14.267Z,16.85
2022-11-04T15:54:00.872Z,16.80
2022-11-04T15:56:43.005Z,16.74
2022-11-04T15:59:24.644Z,16.62
2022-11-04T16:02:00.383Z,16.54
2022-11-04T16:04:31.249Z,16.54
2022-11-04T16:07:26.250Z,16.55
2022-11-04T16:10:01.154Z,16.48
2022-11-04T16:12:40.290Z,16.44
2022-11-04T16:15:55.365Z,16.32
2022-11-04T16:18:37.462Z,16.29
2022-11-04T16:21:11.087Z,16.18
2022-11-04T16:23:46.734Z,16.18
2022-11-04T16:26:24.916Z,16.10
2022-11-04T16:29:05.024Z,16.05
2022-11-04T16:31:35.902Z,16.05
2022-11-04T16:34:05.064Z,16.03
2022-11-04T16:36:35.897Z,16.01
2022-11-04T16:39:08.504Z,15.98
2022-11-04T16:41:38.541Z,15.90
2022-11-04T16:44:19.990Z,15.78
2022-11-04T16:46:48.043Z,15.75
2022-11-04T16:49:18.348Z,15.57
2022-11-04T16:51:47.013Z,15.57
2022-11-04T16:54:15.049Z,15.57
2022-11-04T16:56:43.181Z,15.61
2022-11-04T16:59:13.604Z,15.58
2022-11-04T17:01:41.863Z,15.56
2022-11-04T17:04:10.769Z,15.53
2022-11-04T17:06:39.679Z,15.49
2022-11-04T17:09:18.284Z,15.43
2022-11-04T17:11:46.277Z,15.37
2022-11-04T17:14:16.472Z,15.31
2022-11-04T17:16:44.587Z,15.28
2022-11-04T17:19:17.379Z,15.23
2022-11-04T17:21:46.338Z,15.19
2022-11-04T17:24:14.481Z,15.10
2022-11-04T17:26:42.529Z,15.09
2022-11-04T17:29:16.918Z,15.04
2022-11-04T17:31:46.800Z,14.95
2022-11-04T17:34:14.926Z,14.89
2022-11-04T17:36:42.933Z,14.91
2022-11-04T17:39:10.968Z,14.89
2022-11-04T17:41:56.357Z,14.84
2022-11-04T17:44:24.415Z,14.80
2022-11-04T17:46:53.792Z,14.81
2022-11-04T17:49:23.469Z,14.72
2022-11-04T17:51:53.728Z,14.71
2022-11-04T17:54:22.695Z,14.72
2022-11-04T17:56:50.873Z,14.70
2022-11-04T17:59:20.433Z,14.67
2022-11-04T18:01:48.871Z,14.65
2022-11-04T18:04:20.596Z,14.66
2022-11-04T18:06:48.917Z,14.64
2022-11-04T18:09:17.410Z,14.57
2022-11-04T18:12:03.600Z,14.55
2022-11-04T18:14:32.334Z,14.52
2022-11-04T18:17:00.533Z,14.50
2022-11-04T18:19:30.281Z,14.47
2022-11-04T18:21:58.290Z,14.44
2022-11-04T18:24:26.318Z,14.40
2022-11-04T18:26:54.484Z,14.39
2022-11-04T18:29:23.038Z,14.39
2022-11-04T18:31:51.089Z,14.36
2022-11-04T18:34:20.068Z,14.34
2022-11-04T18:36:50.107Z,14.29
2022-11-04T18:39:19.558Z,14.26
2022-11-04T18:41:47.939Z,14.23
2022-11-04T18:44:17.967Z,14.19
2022-11-04T18:46:46.088Z,14.17
2022-11-04T18:49:14.553Z,14.15
2022-11-04T18:51:43.189Z,14.12
2022-11-04T18:54:13.323Z,14.13
2022-11-04T18:56:41.377Z,14.17
2022-11-04T18:59:10.708Z,14.19
2022-11-04T19:01:39.046Z,14.21
2022-11-04T19:04:07.262Z,14.22
2022-11-04T19:06:38.620Z,14.21
2022-11-04T19:09:32.430Z,14.15
2022-11-04T19:12:12.776Z,14.10
2022-11-04T19:14:41.040Z,14.07
2022-11-04T19:17:09.389Z,14.01
2022-11-04T19:19:37.382Z,14.00
2022-11-04T19:22:05.388Z,13.99
2022-11-04T19:24:33.505Z,13.92
2022-11-04T19:27:04.450Z,13.89
2022-11-04T19:29:32.981Z,13.84
2022-11-04T19:32:01.094Z,13.85
2022-11-04T19:34:29.170Z,13.85
2022-11-04T19:36:57.240Z,13.86
2022-11-04T19:39:25.309Z,13.79
2022-11-04T19:42:10.824Z,13.81
2022-11-04T19:44:40.308Z,13.82
2022-11-04T19:47:09.073Z,13.78
2022-11-04T19:49:37.062Z,13.76
2022-11-04T19:52:05.441Z,13.70
2022-11-04T19:54:33.604Z,13.66
2022-11-04T19:57:01.628Z,13.65
2022-11-04T19:59:29.644Z,13.67
2022-11-04T20:01:59.081Z,13.67
2022-11-04T20:04:27.137Z,13.68
2022-11-04T20:06:55.111Z,13.64
2022-11-04T20:09:23.613Z,13.76
2022-11-04T20:12:11.933Z,13.77
2022-11-04T20:14:43.047Z,13.78
2022-11-04T20:17:12.450Z,13.80
2022-11-04T20:19:40.666Z,13.88
2022-11-04T20:22:08.653Z,13.95
2022-11-04T20:24:36.927Z,13.99
2022-11-04T20:27:05.245Z,14.01
2022-11-04T20:29:35.440Z,14.03
2022-11-04T20:32:05.818Z,14.00
2022-11-04T20:34:35.982Z,14.01
2022-11-04T20:37:04.088Z,14.00
2022-11-04T20:39:32.489Z,14.04
2022-11-04T20:42:00.492Z,14.05
2022-11-04T20:44:28.527Z,14.05
2022-11-04T20:47:01.079Z,14.04
2022-11-04T20:49:29.889Z,14.05
2022-11-04T20:51:59.216Z,14.05
2022-11-04T20:54:27.363Z,14.03
2022-11-04T20:56:55.520Z,13.93
2022-11-04T20:59:23.513Z,13.85
2022-11-04T21:01:53.076Z,13.82
2022-11-04T21:04:22.127Z,13.79
2022-11-04T21:06:51.671Z,13.76
2022-11-04T21:09:22.349Z,13.70
2022-11-04T21:11:51.393Z,13.73
2022-11-04T21:14:20.331Z,13.71
2022-11-04T21:16:48.916Z,13.68
2022-11-04T21:19:17.347Z,13.62
2022-11-04T21:21:47.026Z,13.60
2022-11-04T21:24:19.599Z,13.58
2022-11-04T21:26:49.301Z,13.55
2022-11-04T21:29:19.671Z,13.49
2022-11-04T21:31:48.898Z,13.45
2022-11-04T21:34:17.116Z,13.38
2022-11-04T21:36:45.697Z,13.33
2022-11-04T21:39:14.441Z,13.29
2022-11-04T21:41:42.492Z,13.27
2022-11-04T21:44:14.348Z,13.24
2022-11-04T21:46:42.495Z,13.20
2022-11-04T21:49:13.414Z,13.18
2022-11-04T21:51:41.451Z,13.12
2022-11-04T21:54:09.504Z,13.07
2022-11-04T21:56:37.579Z,13.03
2022-11-04T21:59:06.624Z,13.01
2022-11-04T22:01:36.086Z,12.97
2022-11-04T22:04:04.817Z,12.94
2022-11-04T22:06:35.481Z,12.95
2022-11-04T22:09:05.332Z,12.90
2022-11-04T22:11:36.439Z,12.91
2022-11-04T22:14:07.461Z,12.82
2022-11-04T22:16:38.708Z,12.84
2022-11-04T22:19:08.940Z,12.79
2022-11-04T22:21:39.947Z,12.82
2022-11-04T22:24:11.110Z,12.79
2022-11-04T22:26:39.687Z,12.81
2022-11-04T22:29:07.912Z,12.78
2022-11-04T22:31:38.753Z,12.79
2022-11-04T22:34:07.221Z,12.75
2022-11-04T22:36:35.578Z,12.77
2022-11-04T22:39:05.477Z,12.78
2022-11-04T22:41:34.499Z,12.78
2022-11-04T22:44:03.292Z,12.73
2022-11-04T22:46:33.484Z,12.74
2022-11-04T22:49:02.885Z,12.67
2022-11-04T22:51:31.663Z,12.65
2022-11-04T22:54:06.560Z,12.65
2022-11-04T22:56:35.865Z,12.65
2022-11-04T22:59:04.097Z,12.62
2022-11-04T23:01:33.857Z,12.57
2022-11-04T23:04:03.674Z,12.58
2022-11-04T23:06:31.698Z,12.60
2022-11-04T23:09:01.062Z,12.58
2022-11-04T23:11:47.902Z,12.51
2022-11-04T23:14:35.876Z,12.46
2022-11-04T23:17:29.361Z,12.38
2022-11-04T23:19:58.809Z,12.38
2022-11-04T23:22:44.257Z,12.38
2022-11-04T23:25:13.532Z,12.43
2022-11-04T23:28:03.775Z,12.47
2022-11-04T23:30:34.670Z,12.45
2022-11-04T23:33:04.837Z,12.47
2022-11-04T23:35:55.719Z,12.46
2022-11-04T23:38:24.338Z,12.37
2022-11-04T23:41:12.763Z,12.38
2022-11-04T23:43:40.844Z,12.34
2022-11-04T23:46:26.339Z,12.38
2022-11-04T23:49:11.671Z,12.31
2022-11-04T23:51:57.957Z,12.31
2022-11-04T23:54:43.585Z,12.31
2022-11-04T23:57:31.396Z,12.31
